sensor_id;sensor_type;location;lat;lon;timestamp;pressure;altitude;pressure_sealevel;temperature;humidity
14067;BME280;7108;42.684;23.350;2023-04-30T00:01:48;95029.34;;;12.39;100.00
14067;BME280;7108;42.684;23.350;2023-04-30T00:04:13;95031.25;;;12.35;100.00
14067;BME280;7108;42.684;23.350;2023-04-30T00:06:39;95026.88;;;12.20;100.00
14067;BME280;7108;42.684;23.350;2023-04-30T00:09:04;95022.53;;;12.12;100.00
14067;BME280;7108;42.684;23.350;2023-04-30T00:11:30;95028.38;;;12.21;100.00
14067;BME280;7108;42.684;23.350;2023-04-30T00:13:55;95021.75;;;12.12;100.00
14067;BME280;7108;42.684;23.350;2023-04-30T00:16:21;95032.16;;;12.10;100.00
14067;BME280;7108;42.684;23.350;2023-04-30T00:18:46;95036.41;;;12.11;100.00
14067;BME280;7108;42.684;23.350;2023-04-30T00:21:12;95025.94;;;12.06;100.00
14067;BME280;7108;42.684;23.350;2023-04-30T00:23:37;95034.84;;;12.10;100.00
14067;BME280;7108;42.684;23.350;2023-04-30T00:26:03;95023.91;;;11.96;100.00
14067;BME280;7108;42.684;23.350;2023-04-30T00:28:28;95024.72;;;12.00;100.00
14067;BME280;7108;42.684;23.350;2023-04-30T00:30:54;95025.47;;;11.97;100.00
14067;BME280;7108;42.684;23.350;2023-04-30T00:33:19;95024.72;;;12.00;100.00
14067;BME280;7108;42.684;23.350;2023-04-30T00:35:45;95033.25;;;12.02;100.00
14067;BME280;7108;42.684;23.350;2023-04-30T00:38:11;95029.19;;;11.85;100.00
14067;BME280;7108;42.684;23.350;2023-04-30T00:40:37;95024.50;;;11.79;100.00
14067;BME280;7108;42.684;23.350;2023-04-30T00:43:04;95023.31;;;11.77;100.00
14067;BME280;7108;42.684;23.350;2023-04-30T00:45:29;95031.09;;;11.81;100.00
14067;BME280;7108;42.684;23.350;2023-04-30T00:47:55;95029.03;;;11.72;100.00
14067;BME280;7108;42.684;23.350;2023-04-30T00:50:21;95028.28;;;11.71;100.00
14067;BME280;7108;42.684;23.350;2023-04-30T00:52:47;95030.66;;;11.76;100.00
14067;BME280;7108;42.684;23.350;2023-04-30T00:55:12;95028.66;;;11.73;100.00
14067;BME280;7108;42.684;23.350;2023-04-30T00:57:39;95022.75;;;11.61;100.00
14067;BME280;7108;42.684;23.350;2023-04-30T01:00:05;95025.34;;;11.54;100.00
14067;BME280;7108;42.684;23.350;2023-04-30T01:02:39;95036.63;;;11.59;100.00
14067;BME280;7108;42.684;23.350;2023-04-30T01:05:06;95019.28;;;11.60;100.00
14067;BME280;7108;42.684;23.350;2023-04-30T01:07:33;95019.50;;;11.48;100.00
14067;BME280;7108;42.684;23.350;2023-04-30T01:09:59;95029.53;;;11.48;100.00
14067;BME280;7108;42.684;23.350;2023-04-30T01:13:02;95027.22;;;11.50;100.00
14067;BME280;7108;42.684;23.350;2023-04-30T01:18:22;95025.91;;;11.37;100.00
14067;BME280;7108;42.684;23.350;2023-04-30T01:21:01;95013.09;;;11.30;100.00
14067;BME280;7108;42.684;23.350;2023-04-30T01:28:44;95029.28;;;11.30;100.00
14067;BME280;7108;42.684;23.350;2023-04-30T01:31:16;95025.31;;;11.21;100.00
14067;BME280;7108;42.684;23.350;2023-04-30T01:33:42;95024.53;;;11.20;100.00
14067;BME280;7108;42.684;23.350;2023-04-30T01:36:22;95028.06;;;11.24;100.00
14067;BME280;7108;42.684;23.350;2023-04-30T01:41:32;95033.03;;;11.22;100.00
14067;BME280;7108;42.684;23.350;2023-04-30T01:44:24;95039.94;;;11.20;100.00
14067;BME280;7108;42.684;23.350;2023-04-30T01:47:20;95029.56;;;11.22;100.00
14067;BME280;7108;42.684;23.350;2023-04-30T01:52:39;95032.13;;;11.11;100.00
14067;BME280;7108;42.684;23.350;2023-04-30T01:55:13;95031.66;;;11.06;100.00
14067;BME280;7108;42.684;23.350;2023-04-30T01:57:52;95032.84;;;11.09;100.00
14067;BME280;7108;42.684;23.350;2023-04-30T02:00:19;95023.09;;;11.01;100.00
14067;BME280;7108;42.684;23.350;2023-04-30T02:02:45;95032.06;;;11.08;100.00
14067;BME280;7108;42.684;23.350;2023-04-30T02:05:10;95026.94;;;11.00;100.00
14067;BME280;7108;42.684;23.350;2023-04-30T02:07:42;95026.59;;;11.01;100.00
14067;BME280;7108;42.684;23.350;2023-04-30T02:10:09;95031.97;;;11.01;100.00
14067;BME280;7108;42.684;23.350;2023-04-30T02:12:36;95024.66;;;11.02;100.00
14067;BME280;7108;42.684;23.350;2023-04-30T02:15:02;95032.81;;;11.05;100.00
14067;BME280;7108;42.684;23.350;2023-04-30T02:17:28;95030.06;;;11.02;100.00
14067;BME280;7108;42.684;23.350;2023-04-30T02:19:57;95034.38;;;11.06;100.00
14067;BME280;7108;42.684;23.350;2023-04-30T02:22:23;95022.72;;;10.99;100.00
14067;BME280;7108;42.684;23.350;2023-04-30T02:24:48;95034.19;;;10.96;100.00
14067;BME280;7108;42.684;23.350;2023-04-30T02:27:14;95013.31;;;10.89;100.00
14067;BME280;7108;42.684;23.350;2023-04-30T02:29:40;95029.19;;;10.94;100.00
14067;BME280;7108;42.684;23.350;2023-04-30T02:32:05;95026.59;;;11.01;100.00
14067;BME280;7108;42.684;23.350;2023-04-30T02:34:31;95027.78;;;11.04;100.00
14067;BME280;7108;42.684;23.350;2023-04-30T02:36:56;95021.16;;;10.98;100.00
14067;BME280;7108;42.684;23.350;2023-04-30T02:39:21;95024.72;;;11.05;100.00
14067;BME280;7108;42.684;23.350;2023-04-30T02:41:47;95025.81;;;11.01;100.00
14067;BME280;7108;42.684;23.350;2023-04-30T02:44:12;95026.91;;;10.96;100.00
14067;BME280;7108;42.684;23.350;2023-04-30T02:46:38;95033.13;;;11.00;100.00
14067;BME280;7108;42.684;23.350;2023-04-30T02:49:03;95024.97;;;10.97;100.00
14067;BME280;7108;42.684;23.350;2023-04-30T02:51:28;95034.72;;;11.05;100.00
14067;BME280;7108;42.684;23.350;2023-04-30T02:53:54;95037.81;;;11.07;100.00
14067;BME280;7108;42.684;23.350;2023-04-30T02:56:20;95031.25;;;11.04;100.00
14067;BME280;7108;42.684;23.350;2023-04-30T02:58:45;95031.63;;;11.03;100.00
14067;BME280;7108;42.684;23.350;2023-04-30T03:01:11;95033.50;;;10.99;100.00
14067;BME280;7108;42.684;23.350;2023-04-30T03:03:36;95042.84;;;11.08;100.00
14067;BME280;7108;42.684;23.350;2023-04-30T03:06:01;95044.84;;;11.11;100.00
14067;BME280;7108;42.684;23.350;2023-04-30T03:08:27;95041.22;;;11.00;100.00
14067;BME280;7108;42.684;23.350;2023-04-30T03:10:52;95046.34;;;11.09;100.00
14067;BME280;7108;42.684;23.350;2023-04-30T03:13:21;95050.66;;;11.16;100.00
14067;BME280;7108;42.684;23.350;2023-04-30T03:15:46;95043.72;;;11.15;100.00
14067;BME280;7108;42.684;23.350;2023-04-30T03:18:12;95049.97;;;11.23;100.00
14067;BME280;7108;42.684;23.350;2023-04-30T03:20:37;95053.53;;;11.27;100.00
14067;BME280;7108;42.684;23.350;2023-04-30T03:23:02;95058.06;;;11.23;100.00
14067;BME280;7108;42.684;23.350;2023-04-30T03:25:28;95051.53;;;11.24;100.00
14067;BME280;7108;42.684;23.350;2023-04-30T03:27:53;95045.06;;;11.28;100.00
14067;BME280;7108;42.684;23.350;2023-04-30T03:30:19;95046.19;;;11.27;100.00
14067;BME280;7108;42.684;23.350;2023-04-30T03:32:44;95040.75;;;11.24;100.00
14067;BME280;7108;42.684;23.350;2023-04-30T03:35:10;95045.06;;;11.28;100.00
14067;BME280;7108;42.684;23.350;2023-04-30T03:37:35;95046.63;;;11.29;100.00
14067;BME280;7108;42.684;23.350;2023-04-30T03:40:01;95050.94;;;11.37;100.00
14067;BME280;7108;42.684;23.350;2023-04-30T03:42:26;95060.97;;;11.37;100.00
14067;BME280;7108;42.684;23.350;2023-04-30T03:44:52;95060.16;;;11.33;100.00
14067;BME280;7108;42.684;23.350;2023-04-30T03:47:17;95074.16;;;11.42;100.00
14067;BME280;7108;42.684;23.350;2023-04-30T03:49:42;95073.34;;;11.41;100.00
14067;BME280;7108;42.684;23.350;2023-04-30T03:52:08;95066.41;;;11.40;100.00
14067;BME280;7108;42.684;23.350;2023-04-30T03:54:33;95083.06;;;11.46;100.00
14067;BME280;7108;42.684;23.350;2023-04-30T03:56:59;95083.00;;;11.42;100.00
14067;BME280;7108;42.684;23.350;2023-04-30T03:59:27;95083.47;;;11.48;100.00
14067;BME280;7108;42.684;23.350;2023-04-30T04:01:53;95076.09;;;11.45;100.00
14067;BME280;7108;42.684;23.350;2023-04-30T04:04:19;95076.91;;;11.49;100.00
14067;BME280;7108;42.684;23.350;2023-04-30T04:06:45;95083.22;;;11.56;100.00
14067;BME280;7108;42.684;23.350;2023-04-30T04:09:10;95081.25;;;11.53;100.00
14067;BME280;7108;42.684;23.350;2023-04-30T04:11:36;95078.47;;;11.50;100.00
14067;BME280;7108;42.684;23.350;2023-04-30T04:14:01;95080.06;;;11.51;100.00
14067;BME280;7108;42.684;23.350;2023-04-30T04:16:26;95083.53;;;11.51;100.00
14067;BME280;7108;42.684;23.350;2023-04-30T04:18:52;95090.59;;;11.59;100.00
14067;BME280;7108;42.684;23.350;2023-04-30T04:21:17;95078.97;;;11.55;100.00
14067;BME280;7108;42.684;23.350;2023-04-30T04:23:43;95077.03;;;11.56;100.00
14067;BME280;7108;42.684;23.350;2023-04-30T04:26:08;95078.59;;;11.57;100.00
14067;BME280;7108;42.684;23.350;2023-04-30T04:28:35;95080.59;;;11.63;100.00
14067;BME280;7108;42.684;23.350;2023-04-30T04:31:01;95093.06;;;11.71;100.00
14067;BME280;7108;42.684;23.350;2023-04-30T04:33:27;95086.84;;;11.71;100.00
14067;BME280;7108;42.684;23.350;2023-04-30T04:35:53;95090.06;;;11.79;100.00
14067;BME280;7108;42.684;23.350;2023-04-30T04:38:18;95090.38;;;11.75;100.00
14067;BME280;7108;42.684;23.350;2023-04-30T04:40:53;95089.97;;;11.73;100.00
14067;BME280;7108;42.684;23.350;2023-04-30T04:43:19;95085.69;;;11.68;100.00
14067;BME280;7108;42.684;23.350;2023-04-30T04:45:44;95093.44;;;11.73;100.00
14067;BME280;7108;42.684;23.350;2023-04-30T04:48:11;95094.31;;;11.80;100.00
14067;BME280;7108;42.684;23.350;2023-04-30T04:50:36;95097.00;;;11.80;100.00
14067;BME280;7108;42.684;23.350;2023-04-30T04:53:02;95100.97;;;11.90;100.00
14067;BME280;7108;42.684;23.350;2023-04-30T04:55:27;95096.78;;;11.92;100.00
14067;BME280;7108;42.684;23.350;2023-04-30T04:57:52;95087.38;;;11.83;100.00
14067;BME280;7108;42.684;23.350;2023-04-30T05:00:18;95094.03;;;11.89;100.00
14067;BME280;7108;42.684;23.350;2023-04-30T05:02:46;95101.06;;;11.97;100.00
14067;BME280;7108;42.684;23.350;2023-04-30T05:05:11;95113.50;;;12.05;100.00
14067;BME280;7108;42.684;23.350;2023-04-30T05:07:37;95103.44;;;12.02;100.00
14067;BME280;7108;42.684;23.350;2023-04-30T05:10:02;95102.69;;;12.05;100.00
14067;BME280;7108;42.684;23.350;2023-04-30T05:12:28;95096.91;;;12.03;100.00
14067;BME280;7108;42.684;23.350;2023-04-30T05:14:53;95095.72;;;12.04;100.00
14067;BME280;7108;42.684;23.350;2023-04-30T05:17:19;95105.84;;;12.10;100.00
14067;BME280;7108;42.684;23.350;2023-04-30T05:19:44;95103.59;;;12.16;100.00
14067;BME280;7108;42.684;23.350;2023-04-30T05:22:11;95109.06;;;12.23;100.00
14067;BME280;7108;42.684;23.350;2023-04-30T05:24:37;95113.81;;;12.33;100.00
14067;BME280;7108;42.684;23.350;2023-04-30T05:27:02;95102.97;;;12.29;100.00
14067;BME280;7108;42.684;23.350;2023-04-30T05:29:29;95102.63;;;12.34;100.00
14067;BME280;7108;42.684;23.350;2023-04-30T05:31:54;95096.75;;;12.25;100.00
14067;BME280;7108;42.684;23.350;2023-04-30T05:34:20;95106.09;;;12.35;100.00
14067;BME280;7108;42.684;23.350;2023-04-30T05:36:45;95111.44;;;12.28;100.00
14067;BME280;7108;42.684;23.350;2023-04-30T05:39:11;95110.59;;;12.24;100.00
14067;BME280;7108;42.684;23.350;2023-04-30T05:41:36;95112.03;;;12.11;100.00
14067;BME280;7108;42.684;23.350;2023-04-30T05:44:01;95111.97;;;12.07;100.00
14067;BME280;7108;42.684;23.350;2023-04-30T05:46:29;95098.03;;;12.02;100.00
14067;BME280;7108;42.684;23.350;2023-04-30T05:48:54;95108.19;;;12.12;100.00
14067;BME280;7108;42.684;23.350;2023-04-30T05:51:20;95104.34;;;12.13;100.00
14067;BME280;7108;42.684;23.350;2023-04-30T05:53:45;95101.31;;;12.18;100.00
14067;BME280;7108;42.684;23.350;2023-04-30T05:56:11;95099.28;;;12.11;100.00
14067;BME280;7108;42.684;23.350;2023-04-30T05:58:37;95105.53;;;12.15;100.00
14067;BME280;7108;42.684;23.350;2023-04-30T06:01:03;95111.25;;;12.10;100.00
14067;BME280;7108;42.684;23.350;2023-04-30T06:03:29;95110.72;;;11.98;100.00
14067;BME280;7108;42.684;23.350;2023-04-30T06:05:55;95113.09;;;12.03;100.00
14067;BME280;7108;42.684;23.350;2023-04-30T06:08:21;95106.53;;;12.04;100.00
14067;BME280;7108;42.684;23.350;2023-04-30T06:10:47;95115.16;;;12.13;100.00
14067;BME280;7108;42.684;23.350;2023-04-30T06:13:13;95123.59;;;12.08;100.00
14067;BME280;7108;42.684;23.350;2023-04-30T06:15:39;95123.91;;;12.06;100.00
14067;BME280;7108;42.684;23.350;2023-04-30T06:18:06;95128.75;;;12.23;100.00
14067;BME280;7108;42.684;23.350;2023-04-30T06:20:31;95106.72;;;12.18;100.00
14067;BME280;7108;42.684;23.350;2023-04-30T06:22:57;95127.38;;;12.36;100.00
14067;BME280;7108;42.684;23.350;2023-04-30T06:25:22;95127.03;;;12.44;100.00
14067;BME280;7108;42.684;23.350;2023-04-30T06:27:48;95127.06;;;12.48;100.00
14067;BME280;7108;42.684;23.350;2023-04-30T06:30:15;95111.50;;;12.35;100.00
14067;BME280;7108;42.684;23.350;2023-04-30T06:32:41;95130.81;;;12.37;100.00
14067;BME280;7108;42.684;23.350;2023-04-30T06:35:07;95128.53;;;12.39;100.00
14067;BME280;7108;42.684;23.350;2023-04-30T06:37:32;95135.16;;;12.44;100.00
14067;BME280;7108;42.684;23.350;2023-04-30T06:40:02;95126.31;;;12.47;100.00
14067;BME280;7108;42.684;23.350;2023-04-30T06:42:29;95125.28;;;12.62;100.00
14067;BME280;7108;42.684;23.350;2023-04-30T06:44:59;95119.66;;;12.81;100.00
14067;BME280;7108;42.684;23.350;2023-04-30T06:47:25;95119.09;;;13.02;100.00
14067;BME280;7108;42.684;23.350;2023-04-30T06:49:51;95123.09;;;13.21;100.00
14067;BME280;7108;42.684;23.350;2023-04-30T06:52:16;95125.44;;;13.19;100.00
14067;BME280;7108;42.684;23.350;2023-04-30T06:54:41;95119.66;;;13.28;100.00
14067;BME280;7108;42.684;23.350;2023-04-30T06:57:08;95120.97;;;13.48;100.00
14067;BME280;7108;42.684;23.350;2023-04-30T06:59:33;95114.41;;;13.52;100.00
14067;BME280;7108;42.684;23.350;2023-04-30T07:01:59;95121.06;;;13.65;100.00
14067;BME280;7108;42.684;23.350;2023-04-30T07:04:24;95110.25;;;13.65;100.00
14067;BME280;7108;42.684;23.350;2023-04-30T07:06:50;95121.91;;;13.76;100.00
14067;BME280;7108;42.684;23.350;2023-04-30T07:09:16;95112.56;;;13.67;100.00
14067;BME280;7108;42.684;23.350;2023-04-30T07:11:41;95121.13;;;13.79;100.00
14067;BME280;7108;42.684;23.350;2023-04-30T07:14:07;95131.88;;;13.62;100.00
14067;BME280;7108;42.684;23.350;2023-04-30T07:16:32;95129.00;;;13.34;100.00
14067;BME280;7108;42.684;23.350;2023-04-30T07:18:58;95125.06;;;13.24;100.00
14067;BME280;7108;42.684;23.350;2023-04-30T07:21:24;95132.44;;;13.27;100.00
14067;BME280;7108;42.684;23.350;2023-04-30T07:23:50;95132.41;;;13.24;100.00
14067;BME280;7108;42.684;23.350;2023-04-30T07:26:16;95128.94;;;13.23;100.00
14067;BME280;7108;42.684;23.350;2023-04-30T07:28:41;95120.00;;;13.23;100.00
14067;BME280;7108;42.684;23.350;2023-04-30T07:31:10;95122.38;;;13.24;100.00
14067;BME280;7108;42.684;23.350;2023-04-30T07:33:36;95132.47;;;13.31;100.00
14067;BME280;7108;42.684;23.350;2023-04-30T07:36:02;95115.78;;;13.22;100.00
14067;BME280;7108;42.684;23.350;2023-04-30T07:38:28;95132.09;;;13.36;100.00
14067;BME280;7108;42.684;23.350;2023-04-30T07:40:53;95138.78;;;13.52;100.00
14067;BME280;7108;42.684;23.350;2023-04-30T07:43:18;95130.69;;;13.56;100.00
14067;BME280;7108;42.684;23.350;2023-04-30T07:45:44;95132.66;;;13.66;100.00
14067;BME280;7108;42.684;23.350;2023-04-30T07:48:09;95130.03;;;13.83;100.00
14067;BME280;7108;42.684;23.350;2023-04-30T07:50:35;95133.16;;;13.85;100.00
14067;BME280;7108;42.684;23.350;2023-04-30T07:53:01;95131.59;;;13.84;100.00
14067;BME280;7108;42.684;23.350;2023-04-30T07:55:27;95133.59;;;13.94;100.00
14067;BME280;7108;42.684;23.350;2023-04-30T07:57:52;95132.03;;;13.96;100.00
14067;BME280;7108;42.684;23.350;2023-04-30T08:00:18;95133.22;;;14.02;100.00
14067;BME280;7108;42.684;23.350;2023-04-30T08:02:43;95129.84;;;14.26;100.00
14067;BME280;7108;42.684;23.350;2023-04-30T08:05:10;95117.16;;;14.44;100.00
14067;BME280;7108;42.684;23.350;2023-04-30T08:07:35;95126.09;;;14.58;100.00
14067;BME280;7108;42.684;23.350;2023-04-30T08:10:01;95126.09;;;14.69;100.00
14067;BME280;7108;42.684;23.350;2023-04-30T08:12:26;95123.78;;;14.74;100.00
14067;BME280;7108;42.684;23.350;2023-04-30T08:15:18;95133.88;;;14.91;100.00
14067;BME280;7108;42.684;23.350;2023-04-30T08:17:47;95135.03;;;14.94;100.00
14067;BME280;7108;42.684;23.350;2023-04-30T08:20:13;95130.75;;;14.96;100.00
14067;BME280;7108;42.684;23.350;2023-04-30T08:22:38;95133.09;;;15.01;100.00
14067;BME280;7108;42.684;23.350;2023-04-30T08:25:05;95137.78;;;15.07;100.00
14067;BME280;7108;42.684;23.350;2023-04-30T08:27:30;95140.84;;;15.09;100.00
14067;BME280;7108;42.684;23.350;2023-04-30T08:29:56;95149.38;;;15.05;100.00
14067;BME280;7108;42.684;23.350;2023-04-30T08:32:22;95136.19;;;14.96;100.00
14067;BME280;7108;42.684;23.350;2023-04-30T08:34:47;95136.97;;;14.93;100.00
14067;BME280;7108;42.684;23.350;2023-04-30T08:37:13;95139.69;;;14.93;100.00
14067;BME280;7108;42.684;23.350;2023-04-30T08:39:38;95136.59;;;14.84;100.00
14067;BME280;7108;42.684;23.350;2023-04-30T08:42:07;95143.16;;;14.80;100.00
14067;BME280;7108;42.684;23.350;2023-04-30T08:44:33;95130.75;;;14.75;100.00
14067;BME280;7108;42.684;23.350;2023-04-30T08:47:05;95122.25;;;14.77;100.00
14067;BME280;7108;42.684;23.350;2023-04-30T08:49:31;95125.34;;;14.82;100.00
14067;BME280;7108;42.684;23.350;2023-04-30T08:51:57;95126.13;;;14.90;100.00
14067;BME280;7108;42.684;23.350;2023-04-30T08:54:29;95115.66;;;14.92;100.00
14067;BME280;7108;42.684;23.350;2023-04-30T08:56:56;95131.56;;;15.00;100.00
14067;BME280;7108;42.684;23.350;2023-04-30T08:59:22;95120.34;;;15.22;100.00
14067;BME280;7108;42.684;23.350;2023-04-30T09:01:47;95117.22;;;15.41;100.00
14067;BME280;7108;42.684;23.350;2023-04-30T09:04:12;95100.50;;;15.60;100.00
14067;BME280;7108;42.684;23.350;2023-04-30T09:06:38;95087.28;;;15.76;100.00
14067;BME280;7108;42.684;23.350;2023-04-30T09:09:08;95097.25;;;16.03;100.00
14067;BME280;7108;42.684;23.350;2023-04-30T09:11:35;95094.88;;;16.19;100.00
14067;BME280;7108;42.684;23.350;2023-04-30T09:14:01;95096.75;;;16.26;100.00
14067;BME280;7108;42.684;23.350;2023-04-30T09:16:28;95079.22;;;16.41;100.00
14067;BME280;7108;42.684;23.350;2023-04-30T09:18:57;95084.53;;;16.61;100.00
14067;BME280;7108;42.684;23.350;2023-04-30T09:21:30;95082.94;;;16.67;100.00
14067;BME280;7108;42.684;23.350;2023-04-30T09:23:59;95075.81;;;16.84;96.34
14067;BME280;7108;42.684;23.350;2023-04-30T09:26:33;95065.63;;;16.95;96.79
14067;BME280;7108;42.684;23.350;2023-04-30T09:29:00;95064.72;;;17.11;94.37
14067;BME280;7108;42.684;23.350;2023-04-30T09:31:31;95061.88;;;17.25;95.85
14067;BME280;7108;42.684;23.350;2023-04-30T09:33:57;95055.91;;;17.41;96.30
14067;BME280;7108;42.684;23.350;2023-04-30T09:36:22;95065.66;;;17.42;84.87
14067;BME280;7108;42.684;23.350;2023-04-30T09:38:48;95055.81;;;17.48;91.55
14067;BME280;7108;42.684;23.350;2023-04-30T09:41:24;95054.53;;;17.63;90.77
14067;BME280;7108;42.684;23.350;2023-04-30T09:43:51;95041.25;;;17.65;87.63
14067;BME280;7108;42.684;23.350;2023-04-30T09:46:18;95053.25;;;17.71;89.68
14067;BME280;7108;42.684;23.350;2023-04-30T09:48:44;95055.53;;;17.75;89.73
14067;BME280;7108;42.684;23.350;2023-04-30T09:51:09;95054.47;;;17.66;85.91
14067;BME280;7108;42.684;23.350;2023-04-30T09:53:37;95054.91;;;17.61;87.38
14067;BME280;7108;42.684;23.350;2023-04-30T09:56:06;95049.16;;;17.56;86.95
14067;BME280;7108;42.684;23.350;2023-04-30T09:58:35;95046.06;;;17.50;85.13
14067;BME280;7108;42.684;23.350;2023-04-30T10:01:04;95041.97;;;17.69;88.67
14067;BME280;7108;42.684;23.350;2023-04-30T10:03:36;95044.78;;;17.95;87.01
14067;BME280;7108;42.684;23.350;2023-04-30T10:06:06;95035.13;;;18.20;91.27
14067;BME280;7108;42.684;23.350;2023-04-30T10:08:44;95032.06;;;18.44;79.63
14067;BME280;7108;42.684;23.350;2023-04-30T10:11:16;95042.34;;;18.63;76.97
14067;BME280;7108;42.684;23.350;2023-04-30T10:14:19;95031.66;;;18.72;76.08
14067;BME280;7108;42.684;23.350;2023-04-30T10:17:15;95031.44;;;18.86;73.82
14067;BME280;7108;42.684;23.350;2023-04-30T10:19:45;95025.38;;;18.75;72.74
14067;BME280;7108;42.684;23.350;2023-04-30T10:22:12;95036.13;;;18.59;79.21
14067;BME280;7108;42.684;23.350;2023-04-30T10:24:39;95040.41;;;18.34;73.56
14067;BME280;7108;42.684;23.350;2023-04-30T10:27:06;95050.13;;;17.72;77.99
14067;BME280;7108;42.684;23.350;2023-04-30T10:29:31;95057.94;;;17.33;83.90
14067;BME280;7108;42.684;23.350;2023-04-30T10:31:57;95083.53;;;16.92;95.69
14067;BME280;7108;42.684;23.350;2023-04-30T10:37:02;95079.69;;;16.29;100.00
14067;BME280;7108;42.684;23.350;2023-04-30T10:39:29;95085.75;;;15.65;100.00
14067;BME280;7108;42.684;23.350;2023-04-30T10:42:05;95103.66;;;15.03;100.00
14067;BME280;7108;42.684;23.350;2023-04-30T10:44:40;95106.72;;;14.74;100.00
14067;BME280;7108;42.684;23.350;2023-04-30T10:47:06;95093.94;;;14.67;100.00
14067;BME280;7108;42.684;23.350;2023-04-30T10:49:32;95097.81;;;14.84;100.00
14067;BME280;7108;42.684;23.350;2023-04-30T10:52:02;95093.59;;;15.24;100.00
14067;BME280;7108;42.684;23.350;2023-04-30T10:54:32;95078.00;;;15.56;100.00
14067;BME280;7108;42.684;23.350;2023-04-30T10:57:11;95078.25;;;16.00;100.00
14067;BME280;7108;42.684;23.350;2023-04-30T10:59:41;95073.06;;;16.33;100.00
14067;BME280;7108;42.684;23.350;2023-04-30T11:02:09;95066.66;;;16.60;100.00
14067;BME280;7108;42.684;23.350;2023-04-30T11:07:32;95061.09;;;17.25;100.00
14067;BME280;7108;42.684;23.350;2023-04-30T11:09:59;95055.56;;;17.35;100.00
14067;BME280;7108;42.684;23.350;2023-04-30T11:12:28;95058.84;;;17.60;100.00
14067;BME280;7108;42.684;23.350;2023-04-30T11:15:05;95062.63;;;17.66;100.00
14067;BME280;7108;42.684;23.350;2023-04-30T11:17:31;95056.44;;;17.66;100.00
14067;BME280;7108;42.684;23.350;2023-04-30T11:19:59;95064.63;;;17.62;100.00
14067;BME280;7108;42.684;23.350;2023-04-30T11:22:26;95062.38;;;17.54;100.00
14067;BME280;7108;42.684;23.350;2023-04-30T11:25:14;95060.44;;;17.54;100.00
14067;BME280;7108;42.684;23.350;2023-04-30T11:27:43;95054.31;;;17.47;100.00
14067;BME280;7108;42.684;23.350;2023-04-30T11:30:12;95058.97;;;17.46;100.00
14067;BME280;7108;42.684;23.350;2023-04-30T11:32:40;95059.88;;;17.33;100.00
14067;BME280;7108;42.684;23.350;2023-04-30T11:35:09;95056.97;;;17.10;100.00
14067;BME280;7108;42.684;23.350;2023-04-30T11:37:44;95062.13;;;16.98;100.00
14067;BME280;7108;42.684;23.350;2023-04-30T11:40:11;95066.16;;;16.79;100.00
14067;BME280;7108;42.684;23.350;2023-04-30T11:42:38;95061.59;;;16.66;100.00
14067;BME280;7108;42.684;23.350;2023-04-30T11:45:15;95054.22;;;16.63;100.00
14067;BME280;7108;42.684;23.350;2023-04-30T11:47:49;95052.81;;;16.95;100.00
14067;BME280;7108;42.684;23.350;2023-04-30T11:50:16;95062.84;;;17.05;100.00
14067;BME280;7108;42.684;23.350;2023-04-30T11:52:48;95061.06;;;16.85;100.00
14067;BME280;7108;42.684;23.350;2023-04-30T11:55:19;95060.00;;;16.72;100.00
14067;BME280;7108;42.684;23.350;2023-04-30T11:57:50;95061.44;;;16.87;100.00
14067;BME280;7108;42.684;23.350;2023-04-30T12:00:18;95053.53;;;17.03;100.00
14067;BME280;7108;42.684;23.350;2023-04-30T12:02:46;95043.63;;;17.26;100.00
14067;BME280;7108;42.684;23.350;2023-04-30T12:05:23;95046.13;;;17.47;100.00
14067;BME280;7108;42.684;23.350;2023-04-30T12:07:54;95047.84;;;17.30;100.00
14067;BME280;7108;42.684;23.350;2023-04-30T12:10:20;95045.56;;;17.22;100.00
14067;BME280;7108;42.684;23.350;2023-04-30T12:12:47;95052.94;;;17.25;100.00
14067;BME280;7108;42.684;23.350;2023-04-30T12:15:14;95046.78;;;17.17;100.00
14067;BME280;7108;42.684;23.350;2023-04-30T12:17:41;95062.88;;;17.02;100.00
14067;BME280;7108;42.684;23.350;2023-04-30T12:20:07;95066.94;;;16.76;100.00
14067;BME280;7108;42.684;23.350;2023-04-30T12:22:33;95072.09;;;16.64;100.00
14067;BME280;7108;42.684;23.350;2023-04-30T12:25:05;95082.97;;;16.64;100.00
14067;BME280;7108;42.684;23.350;2023-04-30T12:27:32;95081.44;;;16.59;100.00
14067;BME280;7108;42.684;23.350;2023-04-30T12:30:08;95074.94;;;16.46;100.00
14067;BME280;7108;42.684;23.350;2023-04-30T12:32:55;95080.09;;;16.20;100.00
14067;BME280;7108;42.684;23.350;2023-04-30T12:35:22;95088.72;;;16.05;100.00
14067;BME280;7108;42.684;23.350;2023-04-30T12:37:50;95068.22;;;15.79;100.00
14067;BME280;7108;42.684;23.350;2023-04-30T12:40:18;95072.16;;;15.72;100.00
14067;BME280;7108;42.684;23.350;2023-04-30T12:42:44;95082.25;;;15.71;100.00
14067;BME280;7108;42.684;23.350;2023-04-30T12:45:11;95077.19;;;15.66;100.00
14067;BME280;7108;42.684;23.350;2023-04-30T12:47:41;95081.09;;;15.65;100.00
14067;BME280;7108;42.684;23.350;2023-04-30T12:50:10;95076.41;;;15.69;100.00
14067;BME280;7108;42.684;23.350;2023-04-30T12:52:37;95070.19;;;15.79;100.00
14067;BME280;7108;42.684;23.350;2023-04-30T12:55:33;95078.31;;;15.86;100.00
14067;BME280;7108;42.684;23.350;2023-04-30T12:58:12;95068.56;;;15.92;100.00
14067;BME280;7108;42.684;23.350;2023-04-30T13:00:48;95074.34;;;16.04;100.00
14067;BME280;7108;42.684;23.350;2023-04-30T13:03:15;95068.81;;;16.25;100.00
14067;BME280;7108;42.684;23.350;2023-04-30T13:05:48;95072.28;;;16.33;100.00
14067;BME280;7108;42.684;23.350;2023-04-30T13:08:14;95066.47;;;16.31;100.00
14067;BME280;7108;42.684;23.350;2023-04-30T13:10:39;95052.81;;;16.41;100.00
14067;BME280;7108;42.684;23.350;2023-04-30T13:13:05;95055.13;;;16.46;100.00